Time;durP1;ratioP1;P1;durP2;ratioP2;P2;SDS_P1;SDS_P2;PMS_P1;PMS_P2;Temp;Humidity;BMP_temperature;BMP_pressure;BME280_temperature;BME280_humidity;BME280_pressure;Samples;Min_cycle;Max_cycle;Signal;HPM_P1;HPM_P2
2022/06/10 00:00:59;;;;;;;0.55;0.55;;;16.40;99.90;;;;;;5042960;28;20029;-76
2022/06/10 00:03:26;;;;;;;1.65;0.90;;;16.40;99.90;;;;;;5067085;28;20044;-76
2022/06/10 00:05:59;;;;;;;0.70;0.70;;;16.40;99.90;;;;;;5058405;28;20025;-77
2022/06/10 00:08:27;;;;;;;0.68;0.68;;;16.40;99.90;;;;;;5060406;28;20028;-77
2022/06/10 00:10:54;;;;;;;0.82;0.60;;;16.30;99.90;;;;;;5055912;28;20032;-77
2022/06/10 00:13:22;;;;;;;1.08;0.80;;;16.30;99.90;;;;;;5061370;28;20111;-77
2022/06/10 00:15:49;;;;;;;1.05;0.68;;;16.30;99.90;;;;;;5067725;28;20032;-76
2022/06/10 00:18:15;;;;;;;0.57;0.52;;;16.30;99.90;;;;;;5065624;28;20032;-77
2022/06/10 00:20:41;;;;;;;0.68;0.68;;;16.20;99.90;;;;;;5068965;28;20056;-77
2022/06/10 00:23:07;;;;;;;0.73;0.73;;;16.20;99.90;;;;;;5070297;28;20451;-76
2022/06/10 00:25:34;;;;;;;0.93;0.90;;;16.10;99.90;;;;;;5069028;28;20020;-76
2022/06/10 00:28:00;;;;;;;3.65;0.80;;;16.10;99.90;;;;;;5069388;28;20031;-76
2022/06/10 00:30:29;;;;;;;1.77;0.65;;;16.10;99.90;;;;;;5067802;28;20029;-76
2022/06/10 00:32:55;;;;;;;0.88;0.73;;;16.00;99.90;;;;;;5065498;28;20364;-76
2022/06/10 00:35:21;;;;;;;0.60;0.60;;;16.00;99.90;;;;;;5066982;28;20036;-77
2022/06/10 00:37:46;;;;;;;0.95;0.93;;;15.90;99.90;;;;;;5070673;28;20084;-77
2022/06/10 00:40:17;;;;;;;0.60;0.60;;;15.90;99.90;;;;;;5067081;28;20036;-77
2022/06/10 00:42:43;;;;;;;0.93;0.77;;;15.90;99.90;;;;;;5064231;28;20027;-76
2022/06/10 00:45:51;;;;;;;0.77;0.70;;;15.80;99.90;;;;;;5060432;28;20451;-76
2022/06/10 00:48:36;;;;;;;1.88;1.50;;;15.80;99.90;;;;;;5065081;28;20028;-77
2022/06/10 00:51:12;;;;;;;3.03;1.00;;;15.80;99.90;;;;;;5064815;28;20047;-77
2022/06/10 00:53:38;;;;;;;0.55;0.55;;;15.80;99.90;;;;;;5067005;28;20040;-76
2022/06/10 00:56:11;;;;;;;0.98;0.80;;;15.70;99.90;;;;;;5070259;28;20498;-76
2022/06/10 00:58:44;;;;;;;0.73;0.65;;;15.60;99.90;;;;;;5083769;28;20028;-77
2022/06/10 01:01:11;;;;;;;1.10;0.93;;;15.60;99.90;;;;;;5086892;28;20028;-76
2022/06/10 01:03:37;;;;;;;0.68;0.60;;;15.60;99.90;;;;;;5087119;28;20031;-77
2022/06/10 01:06:02;;;;;;;1.15;1.05;;;15.50;99.90;;;;;;5083412;28;20355;-76
2022/06/10 01:08:28;;;;;;;0.80;0.77;;;15.60;99.90;;;;;;5087438;28;20017;-77
2022/06/10 01:11:22;;;;;;;1.00;0.90;;;15.50;99.90;;;;;;5071131;28;20066;-77
2022/06/10 01:14:16;;;;;;;0.90;0.88;;;15.50;99.90;;;;;;5083669;28;20016;-76
2022/06/10 01:16:59;;;;;;;1.70;1.35;;;15.40;99.90;;;;;;5090257;28;20193;-77
2022/06/10 01:19:59;;;;;;;1.48;0.80;;;15.30;99.90;;;;;;5072238;28;20374;-77
2022/06/10 01:22:54;;;;;;;2.95;0.90;;;15.30;99.90;;;;;;5085601;28;20020;-77
2022/06/10 01:25:49;;;;;;;1.58;1.17;;;15.20;99.90;;;;;;5086172;28;20081;-77
2022/06/10 01:28:49;;;;;;;1.48;0.85;;;15.10;99.90;;;;;;5073675;28;20020;-77
2022/06/10 01:31:40;;;;;;;0.98;0.77;;;15.10;99.90;;;;;;5076522;28;20020;-76
2022/06/10 01:34:46;;;;;;;0.82;0.80;;;15.00;99.90;;;;;;5086449;28;20026;-76
2022/06/10 01:37:18;;;;;;;0.98;0.82;;;15.00;99.90;;;;;;5086951;28;20137;-77
2022/06/10 01:40:00;;;;;;;1.15;0.82;;;15.00;99.90;;;;;;5080154;28;20039;-77
2022/06/10 01:42:36;;;;;;;6.00;0.95;;;15.00;99.90;;;;;;5078846;28;20032;-77
2022/06/10 01:45:27;;;;;;;0.52;0.50;;;15.00;99.90;;;;;;5087694;28;20107;-77
2022/06/10 01:48:17;;;;;;;0.60;0.60;;;15.00;99.90;;;;;;5091775;28;20024;-77
2022/06/10 01:50:51;;;;;;;0.70;0.68;;;14.90;99.90;;;;;;5079026;28;20047;-77
2022/06/10 01:53:27;;;;;;;1.85;0.75;;;14.90;99.90;;;;;;5077596;28;20046;-77
2022/06/10 01:56:09;;;;;;;0.52;0.52;;;15.00;99.90;;;;;;5088232;28;20185;-77
2022/06/10 01:58:47;;;;;;;1.25;0.65;;;15.00;99.90;;;;;;5085161;28;20050;-78
2022/06/10 02:01:16;;;;;;;0.80;0.70;;;14.90;99.90;;;;;;5084945;28;20032;-77
2022/06/10 02:03:53;;;;;;;0.80;0.80;;;14.90;99.90;;;;;;5075602;28;20028;-78
2022/06/10 02:06:29;;;;;;;0.85;0.80;;;14.90;99.90;;;;;;5082335;28;20108;-77
2022/06/10 02:09:01;;;;;;;3.35;1.15;;;14.90;99.90;;;;;;5084517;28;20064;-77
2022/06/10 02:11:30;;;;;;;0.70;0.68;;;14.90;99.90;;;;;;5091078;28;20016;-76
2022/06/10 02:14:07;;;;;;;0.90;0.70;;;14.90;99.90;;;;;;5091779;28;20016;-77
2022/06/10 02:16:38;;;;;;;0.85;0.85;;;14.90;99.90;;;;;;5077084;28;20029;-79
2022/06/10 02:19:16;;;;;;;0.70;0.65;;;14.80;99.90;;;;;;5081491;28;20543;-76
2022/06/10 02:21:52;;;;;;;1.67;0.50;;;14.90;99.90;;;;;;5091516;28;20402;-76
2022/06/10 02:24:27;;;;;;;0.57;0.57;;;14.80;99.90;;;;;;5085679;28;20482;-76
2022/06/10 02:26:57;;;;;;;0.73;0.68;;;14.80;99.90;;;;;;5087826;28;20058;-76
2022/06/10 02:29:30;;;;;;;1.20;0.90;;;14.70;99.90;;;;;;5072932;28;20021;-76
2022/06/10 02:32:00;;;;;;;1.75;0.88;;;14.60;99.90;;;;;;5087589;28;20046;-77
2022/06/10 02:34:27;;;;;;;0.85;0.70;;;14.60;99.90;;;;;;5088124;28;20063;-76
2022/06/10 02:37:02;;;;;;;1.02;0.80;;;14.60;99.90;;;;;;5092292;28;20097;-76
2022/06/10 02:39:40;;;;;;;2.40;1.67;;;14.60;99.90;;;;;;5092947;28;20088;-76
2022/06/10 02:42:16;;;;;;;1.27;1.10;;;14.50;99.90;;;;;;5089898;28;20113;-76
2022/06/10 02:45:03;;;;;;;0.68;0.68;;;14.40;99.90;;;;;;5087381;28;20040;-76
2022/06/10 02:47:40;;;;;;;0.80;0.80;;;14.30;99.90;;;;;;5086751;28;20051;-76
2022/06/10 02:50:10;;;;;;;0.70;0.70;;;14.30;99.90;;;;;;5086749;28;20020;-76
2022/06/10 02:52:36;;;;;;;0.75;0.70;;;14.20;99.90;;;;;;5084438;28;20139;-76
2022/06/10 02:55:05;;;;;;;1.42;1.13;;;14.10;99.90;;;;;;5071802;28;20071;-76
2022/06/10 03:03:25;;;;;;;0.60;0.60;;;14.00;99.90;;;;;;5087520;28;20078;-76
2022/06/10 03:06:15;;;;;;;1.25;0.80;;;13.90;99.90;;;;;;5082854;28;20073;-77
2022/06/10 03:08:47;;;;;;;1.00;0.90;;;13.90;99.90;;;;;;5083869;28;20099;-76
2022/06/10 03:11:39;;;;;;;2.40;1.15;;;13.80;99.90;;;;;;5091935;28;20028;-76
2022/06/10 03:14:22;;;;;;;2.63;0.90;;;13.90;99.90;;;;;;5075268;28;20035;-76
2022/06/10 03:17:21;;;;;;;1.25;0.88;;;13.90;99.90;;;;;;5084426;28;20482;-76
2022/06/10 03:20:10;;;;;;;1.98;1.30;;;13.90;99.90;;;;;;5080656;28;20032;-77
2022/06/10 03:23:05;;;;;;;1.80;1.27;;;14.00;99.90;;;;;;5081162;28;20031;-76
2022/06/10 03:25:57;;;;;;;3.05;1.45;;;14.00;99.90;;;;;;5080411;28;20119;-76
2022/06/10 03:28:49;;;;;;;1.00;0.90;;;14.00;99.90;;;;;;5072988;28;20031;-76
2022/06/10 03:31:22;;;;;;;1.45;1.10;;;14.20;99.90;;;;;;5086971;28;20024;-76
2022/06/10 03:33:54;;;;;;;1.85;1.17;;;14.20;99.90;;;;;;5092388;28;20031;-76
2022/06/10 03:36:24;;;;;;;1.25;1.13;;;14.20;99.90;;;;;;5081494;28;20032;-76
2022/06/10 03:38:52;;;;;;;2.90;1.90;;;14.20;99.90;;;;;;5090476;28;20054;-76
2022/06/10 03:41:26;;;;;;;2.80;1.27;;;14.30;99.90;;;;;;5087257;28;20066;-76
2022/06/10 03:43:54;;;;;;;1.38;0.93;;;14.20;99.90;;;;;;5085413;28;20525;-76
2022/06/10 03:46:22;;;;;;;0.70;0.70;;;14.20;99.90;;;;;;5089316;28;20028;-76
2022/06/10 03:48:49;;;;;;;1.38;1.15;;;14.30;99.90;;;;;;5088395;28;20034;-76
2022/06/10 03:51:17;;;;;;;2.03;1.25;;;14.30;99.90;;;;;;5079160;28;20478;-76
2022/06/10 03:53:43;;;;;;;4.40;1.08;;;14.30;99.90;;;;;;5073622;28;20068;-76
2022/06/10 03:56:10;;;;;;;2.80;1.10;;;14.30;99.90;;;;;;5070976;28;20071;-77
2022/06/10 03:58:36;;;;;;;1.00;0.80;;;14.30;99.90;;;;;;5087511;28;20024;-76
2022/06/10 04:01:01;;;;;;;1.45;1.23;;;14.40;99.90;;;;;;5086379;28;20383;-76
2022/06/10 04:03:27;;;;;;;2.88;1.08;;;14.40;99.90;;;;;;5075768;28;20056;-76
2022/06/10 04:05:52;;;;;;;1.33;1.00;;;14.30;99.90;;;;;;5093689;28;20098;-77
2022/06/10 04:08:18;;;;;;;1.10;1.00;;;14.40;99.90;;;;;;5089027;28;20032;-76
2022/06/10 04:10:43;;;;;;;1.77;1.52;;;14.40;99.90;;;;;;5078881;28;20080;-76
2022/06/10 04:13:10;;;;;;;2.67;1.00;;;14.40;99.90;;;;;;5084642;28;20028;-76
2022/06/10 04:15:36;;;;;;;1.95;1.25;;;14.40;99.90;;;;;;5090870;28;20478;-77
2022/06/10 04:18:04;;;;;;;1.52;1.13;;;14.50;99.90;;;;;;5084906;28;20024;-75
2022/06/10 04:20:35;;;;;;;3.17;1.50;;;14.40;99.90;;;;;;5087238;28;20229;-77
2022/06/10 04:23:01;;;;;;;2.20;1.58;;;14.50;99.90;;;;;;5069972;28;20098;-76
2022/06/10 04:25:27;;;;;;;5.78;1.27;;;14.50;99.90;;;;;;5087537;28;20098;-76
2022/06/10 04:27:53;;;;;;;1.33;0.98;;;14.50;99.90;;;;;;5087399;28;20024;-77
2022/06/10 04:30:46;;;;;;;1.60;1.05;;;14.50;99.90;;;;;;5071222;28;20032;-76
2022/06/10 04:33:12;;;;;;;0.95;0.80;;;14.60;99.90;;;;;;5075481;28;20129;-76
2022/06/10 04:35:40;;;;;;;1.45;1.08;;;14.60;99.90;;;;;;5084738;28;20731;-76
2022/06/10 04:38:07;;;;;;;0.85;0.85;;;14.70;99.90;;;;;;5085519;28;20524;-77
2022/06/10 04:40:35;;;;;;;4.47;1.05;;;14.70;99.90;;;;;;5087531;28;20043;-76
2022/06/10 04:43:01;;;;;;;1.52;1.40;;;14.80;99.90;;;;;;5086426;28;20030;-76
2022/06/10 04:45:33;;;;;;;0.93;0.93;;;14.80;99.90;;;;;;5088382;28;20400;-75
2022/06/10 04:47:59;;;;;;;2.47;1.52;;;14.70;99.90;;;;;;5084770;28;20478;-76
2022/06/10 04:50:26;;;;;;;2.08;1.08;;;14.70;99.90;;;;;;5077980;28;20070;-76
2022/06/10 04:52:52;;;;;;;1.20;1.17;;;14.70;99.90;;;;;;5088080;28;20032;-76
2022/06/10 04:55:19;;;;;;;1.48;1.27;;;14.70;99.90;;;;;;5081727;28;20418;-77
2022/06/10 04:57:44;;;;;;;1.35;1.20;;;14.80;99.90;;;;;;5086601;28;20027;-76
2022/06/10 05:00:16;;;;;;;1.38;1.23;;;14.80;99.90;;;;;;5079613;28;20032;-76
2022/06/10 05:02:42;;;;;;;1.73;1.40;;;14.80;99.90;;;;;;5085593;28;20028;-76
2022/06/10 05:05:08;;;;;;;1.42;1.23;;;14.90;99.90;;;;;;5082304;28;20024;-77
2022/06/10 05:07:34;;;;;;;1.08;1.02;;;14.90;99.90;;;;;;5086681;28;20027;-76
2022/06/10 05:10:00;;;;;;;0.90;0.90;;;15.00;99.90;;;;;;5084940;28;20099;-75
2022/06/10 05:12:25;;;;;;;3.78;1.50;;;15.00;99.90;;;;;;5077176;28;20112;-76
2022/06/10 05:14:51;;;;;;;1.73;1.27;;;15.00;99.90;;;;;;5076945;28;20028;-76
2022/06/10 05:17:16;;;;;;;1.08;0.90;;;15.10;99.90;;;;;;5088094;28;20028;-76
2022/06/10 05:19:42;;;;;;;1.30;1.20;;;15.10;99.90;;;;;;5079737;28;20026;-76
2022/06/10 05:22:08;;;;;;;1.52;1.02;;;15.20;99.90;;;;;;5086586;28;20478;-76
2022/06/10 05:24:33;;;;;;;0.65;0.63;;;15.20;99.90;;;;;;5087443;28;20031;-76
2022/06/10 05:26:59;;;;;;;0.75;0.75;;;15.30;99.90;;;;;;5082187;28;20021;-75
2022/06/10 05:29:25;;;;;;;2.47;0.90;;;15.40;99.90;;;;;;5079262;28;20020;-76
2022/06/10 05:31:50;;;;;;;1.15;1.02;;;15.40;99.90;;;;;;5085211;28;20378;-76
2022/06/10 05:37:00;;;;;;;1.02;0.82;;;15.50;99.90;;;;;;5084162;28;20102;-76
2022/06/10 05:39:26;;;;;;;0.82;0.65;;;15.60;99.90;;;;;;5084581;28;20036;-76
2022/06/10 05:42:06;;;;;;;0.77;0.77;;;15.60;99.90;;;;;;5085573;28;20043;-76
2022/06/10 05:44:34;;;;;;;1.13;0.90;;;15.60;99.90;;;;;;5084416;28;20326;-76
2022/06/10 05:47:00;;;;;;;0.85;0.70;;;15.60;99.90;;;;;;5082337;28;20035;-76
2022/06/10 05:49:26;;;;;;;0.93;0.80;;;15.60;99.90;;;;;;5082655;28;20360;-76
2022/06/10 05:51:52;;;;;;;0.93;0.68;;;15.60;99.90;;;;;;5084149;28;20458;-76
2022/06/10 05:54:19;;;;;;;3.15;1.27;;;15.70;99.90;;;;;;5080528;28;20048;-78
2022/06/10 05:56:44;;;;;;;0.60;0.60;;;15.70;99.90;;;;;;5076682;28;20119;-80
2022/06/10 05:59:10;;;;;;;1.60;1.10;;;15.80;99.90;;;;;;5082224;28;20100;-79
2022/06/10 06:01:37;;;;;;;1.10;0.73;;;15.90;99.90;;;;;;5081291;28;20472;-77
2022/06/10 06:04:03;;;;;;;0.77;0.73;;;15.90;99.90;;;;;;5080521;28;20081;-83
2022/06/10 06:06:28;;;;;;;1.17;1.02;;;15.90;99.90;;;;;;5088608;28;20036;-77
2022/06/10 06:08:54;;;;;;;0.68;0.68;;;15.90;99.90;;;;;;5086255;28;20386;-75
2022/06/10 06:11:19;;;;;;;3.50;0.40;;;15.90;99.90;;;;;;5084246;28;20028;-76
2022/06/10 06:13:45;;;;;;;0.82;0.77;;;16.00;99.90;;;;;;5086262;28;20020;-77
2022/06/10 06:16:18;;;;;;;0.50;0.50;;;16.00;99.90;;;;;;5085498;28;20502;-76
2022/06/10 06:18:44;;;;;;;1.60;1.00;;;16.00;99.90;;;;;;5080106;28;20028;-74
2022/06/10 06:21:10;;;;;;;1.05;0.88;;;16.10;99.90;;;;;;5088527;28;20028;-81
2022/06/10 06:23:36;;;;;;;1.30;0.85;;;16.10;99.90;;;;;;5083042;28;20396;-76
2022/06/10 06:26:03;;;;;;;2.25;1.00;;;16.10;99.90;;;;;;5076655;28;20231;-79
2022/06/10 06:28:52;;;;;;;1.42;0.90;;;16.20;99.90;;;;;;5083067;28;20024;-75
2022/06/10 06:31:18;;;;;;;2.20;0.90;;;16.30;99.90;;;;;;5087294;28;20055;-75
2022/06/10 06:33:44;;;;;;;1.35;1.10;;;16.30;99.90;;;;;;5083764;28;20722;-79
2022/06/10 06:36:20;;;;;;;1.25;1.15;;;16.40;99.90;;;;;;5080238;28;20181;-81
2022/06/10 06:38:45;;;;;;;0.40;0.40;;;16.40;99.90;;;;;;5086067;28;20081;-82
2022/06/10 06:41:11;;;;;;;0.98;0.60;;;16.50;99.90;;;;;;5085420;28;20103;-79
2022/06/10 06:43:37;;;;;;;1.83;0.90;;;16.50;99.90;;;;;;5085469;28;20024;-77
2022/06/10 06:46:03;;;;;;;0.85;0.75;;;16.50;99.90;;;;;;5077806;28;20039;-76
2022/06/10 06:48:29;;;;;;;0.82;0.68;;;16.60;99.90;;;;;;5092038;28;20021;-76
2022/06/10 06:50:55;;;;;;;1.17;0.50;;;16.70;99.90;;;;;;5078560;28;20073;-76
2022/06/10 06:53:20;;;;;;;1.75;0.95;;;16.70;99.90;;;;;;5092443;28;20070;-78
2022/06/10 06:55:46;;;;;;;0.75;0.40;;;16.90;99.90;;;;;;5084138;28;20089;-77
2022/06/10 06:58:14;;;;;;;1.25;0.75;;;16.90;99.90;;;;;;5090294;28;20067;-75
2022/06/10 07:00:40;;;;;;;5.15;0.60;;;17.00;99.90;;;;;;5080080;28;20585;-76
2022/06/10 07:03:06;;;;;;;0.40;0.40;;;17.00;99.90;;;;;;5088757;28;20115;-76
2022/06/10 07:05:31;;;;;;;0.30;0.30;;;17.00;99.00;;;;;;5091281;28;20724;-76
2022/06/10 07:07:58;;;;;;;0.52;0.45;;;17.10;97.90;;;;;;5089788;28;20115;-75
2022/06/10 07:10:24;;;;;;;0.63;0.52;;;17.10;97.70;;;;;;5089390;28;20055;-77
2022/06/10 07:12:50;;;;;;;0.88;0.40;;;17.20;97.30;;;;;;5077381;28;20478;-76
2022/06/10 07:15:17;;;;;;;1.80;0.50;;;17.20;95.40;;;;;;5071470;28;20039;-77
2022/06/10 07:17:43;;;;;;;1.25;0.50;;;17.30;94.30;;;;;;5078010;28;20032;-77
2022/06/10 07:20:17;;;;;;;0.73;0.47;;;17.20;94.20;;;;;;5080856;28;20081;-78
2022/06/10 07:22:43;;;;;;;1.67;0.68;;;17.30;93.50;;;;;;5071284;28;20703;-77
2022/06/10 07:25:08;;;;;;;2.53;0.50;;;17.40;94.70;;;;;;5071270;28;20033;-76
2022/06/10 07:27:36;;;;;;;0.75;0.75;;;17.40;93.80;;;;;;5080046;28;20360;-76
2022/06/10 07:30:04;;;;;;;0.82;0.57;;;17.50;93.60;;;;;;5088251;28;20031;-76
2022/06/10 07:32:29;;;;;;;7.13;0.98;;;17.50;93.30;;;;;;5089901;28;20024;-78
2022/06/10 07:34:55;;;;;;;2.53;0.73;;;17.60;93.30;;;;;;5081105;28;20053;-76
2022/06/10 07:37:20;;;;;;;4.25;0.95;;;17.60;93.60;;;;;;5077311;28;20024;-76
2022/06/10 07:39:45;;;;;;;0.93;0.60;;;17.70;93.90;;;;;;5081838;28;20025;-78
2022/06/10 07:42:11;;;;;;;0.75;0.52;;;17.80;93.10;;;;;;5090862;28;20028;-77
2022/06/10 07:44:37;;;;;;;3.60;0.70;;;17.80;94.00;;;;;;5087167;28;20031;-77
2022/06/10 07:47:09;;;;;;;0.70;0.70;;;17.90;92.90;;;;;;5070926;28;20039;-77
2022/06/10 07:49:35;;;;;;;0.65;0.52;;;18.00;92.40;;;;;;5076715;28;20024;-76
2022/06/10 07:52:03;;;;;;;1.17;0.60;;;18.10;92.20;;;;;;5090041;28;20028;-76
2022/06/10 07:54:29;;;;;;;2.88;0.70;;;18.30;93.60;;;;;;5072776;28;20051;-77
2022/06/10 07:56:55;;;;;;;0.60;0.60;;;18.40;92.20;;;;;;5089593;28;20028;-77
2022/06/10 07:59:21;;;;;;;0.82;0.82;;;18.40;91.70;;;;;;5089616;28;20016;-78
2022/06/10 08:01:46;;;;;;;0.50;0.50;;;18.50;91.90;;;;;;5088666;28;20028;-77
2022/06/10 08:04:12;;;;;;;2.20;0.70;;;18.60;90.70;;;;;;5091071;28;20039;-79
2022/06/10 08:06:41;;;;;;;0.50;0.50;;;18.60;90.40;;;;;;5090774;28;20051;-77
2022/06/10 08:09:09;;;;;;;0.55;0.55;;;18.60;91.00;;;;;;5070767;28;20024;-78
2022/06/10 08:11:35;;;;;;;0.47;0.47;;;18.60;91.30;;;;;;5082953;28;20047;-76
2022/06/10 08:14:00;;;;;;;2.00;0.90;;;18.80;90.20;;;;;;5070346;28;20031;-78
2022/06/10 08:16:26;;;;;;;1.75;1.13;;;18.70;88.80;;;;;;5070380;28;20021;-78
2022/06/10 08:18:52;;;;;;;0.50;0.50;;;18.50;89.20;;;;;;5071841;28;20036;-78
2022/06/10 08:24:05;;;;;;;0.60;0.60;;;18.50;90.30;;;;;;5078697;28;20465;-83
2022/06/10 08:26:30;;;;;;;6.05;0.88;;;18.70;88.90;;;;;;5088301;28;20069;-80
2022/06/10 08:29:00;;;;;;;0.70;0.70;;;18.80;85.40;;;;;;5078597;28;20012;-77
2022/06/10 08:31:26;;;;;;;0.57;0.50;;;18.80;85.20;;;;;;5082556;28;20093;-80
2022/06/10 08:33:52;;;;;;;2.20;0.70;;;18.90;82.20;;;;;;5080911;28;20036;-79
2022/06/10 08:36:18;;;;;;;3.88;0.82;;;18.90;82.00;;;;;;5079053;28;20107;-79
2022/06/10 08:38:43;;;;;;;1.73;0.57;;;19.00;81.00;;;;;;5071622;28;20482;-81
2022/06/10 08:41:49;;;;;;;2.22;0.70;;;19.00;81.30;;;;;;5080124;28;20031;-79
2022/06/10 08:44:29;;;;;;;2.40;0.60;;;19.10;79.80;;;;;;5087103;28;20506;-80
2022/06/10 08:47:04;;;;;;;0.60;0.60;;;19.20;79.30;;;;;;5078494;28;20024;-80
2022/06/10 08:50:03;;;;;;;0.43;0.38;;;19.30;79.80;;;;;;5076861;28;20074;-83
2022/06/10 08:53:11;;;;;;;0.50;0.50;;;19.30;77.90;;;;;;5082907;28;20121;-79
2022/06/10 08:55:45;;;;;;;1.02;0.60;;;19.60;78.60;;;;;;5081009;28;20071;-81
2022/06/10 08:58:21;;;;;;;1.00;0.60;;;19.80;79.90;;;;;;5081123;28;20024;-77
2022/06/10 09:00:48;;;;;;;0.50;0.50;;;19.70;77.40;;;;;;5071972;28;20036;-78
2022/06/10 09:03:40;;;;;;;4.03;0.63;;;19.80;77.60;;;;;;5084595;28;20032;-78
2022/06/10 09:06:11;;;;;;;0.80;0.57;;;19.80;76.10;;;;;;5075476;28;20032;-78
2022/06/10 09:08:47;;;;;;;0.45;0.45;;;19.80;77.10;;;;;;5087136;28;20048;-78
2022/06/10 09:11:30;;;;;;;1.27;0.80;;;20.00;77.50;;;;;;5079367;28;20118;-79
2022/06/10 09:14:10;;;;;;;3.78;0.90;;;20.10;74.70;;;;;;5071504;28;20028;-77
2022/06/10 09:16:47;;;;;;;0.30;0.30;;;19.90;74.50;;;;;;5085152;28;20674;-77
2022/06/10 09:19:15;;;;;;;2.10;0.82;;;19.80;75.20;;;;;;5083628;28;20070;-77
2022/06/10 09:21:56;;;;;;;0.40;0.40;;;19.90;74.30;;;;;;5081440;28;20020;-83
2022/06/10 09:24:40;;;;;;;0.60;0.60;;;20.10;77.80;;;;;;5077662;28;20073;-77
2022/06/10 09:27:15;;;;;;;0.50;0.50;;;20.30;73.30;;;;;;5077981;28;20036;-78
2022/06/10 09:29:41;;;;;;;0.40;0.40;;;20.10;74.20;;;;;;5084654;28;20028;-80
2022/06/10 09:32:08;;;;;;;2.97;0.65;;;20.10;76.30;;;;;;5080709;28;20099;-80
2022/06/10 09:34:51;;;;;;;5.35;0.90;;;20.10;73.70;;;;;;5085645;28;20110;-75
2022/06/10 09:37:49;;;;;;;3.97;0.80;;;20.20;74.30;;;;;;5075573;28;20028;-79
2022/06/10 09:40:36;;;;;;;0.75;0.45;;;20.30;73.80;;;;;;5081185;28;20078;-84
2022/06/10 09:43:26;;;;;;;1.35;0.70;;;20.40;72.10;;;;;;5080832;28;20489;-81
2022/06/10 09:46:10;;;;;;;3.33;0.70;;;20.50;72.60;;;;;;5082831;28;20115;-83
2022/06/10 09:49:19;;;;;;;0.38;0.38;;;20.70;71.80;;;;;;5088734;28;20031;-84
2022/06/10 09:52:15;;;;;;;0.90;0.82;;;20.80;68.20;;;;;;4995687;28;20665;-80
2022/06/10 09:55:22;;;;;;;0.82;0.82;;;20.80;66.40;;;;;;5077554;28;20048;-79
2022/06/10 09:58:24;;;;;;;0.88;0.70;;;20.60;62.00;;;;;;5082724;28;20024;-79
2022/06/10 10:00:56;;;;;;;;;;;20.50;64.40;;;;;;5074049;28;20032;-77
2022/06/10 10:03:42;;;;;;;1.70;0.85;;;20.70;66.10;;;;;;5087116;28;19908;-82
2022/06/10 10:06:28;;;;;;;1.02;0.60;;;20.70;66.70;;;;;;5086530;28;20040;-77
2022/06/10 10:09:30;;;;;;;0.43;0.43;;;20.80;67.10;;;;;;5081977;28;20548;-82
2022/06/10 10:12:14;;;;;;;0.20;0.20;;;21.00;67.80;;;;;;5089681;28;20074;-80
2022/06/10 10:14:48;;;;;;;0.75;0.75;;;21.00;65.40;;;;;;5086829;28;20032;-77
2022/06/10 10:17:35;;;;;;;1.02;0.50;;;21.00;66.10;;;;;;5085104;28;20032;-81
2022/06/10 10:20:22;;;;;;;2.13;1.38;;;21.10;66.30;;;;;;5088761;28;20031;-77
2022/06/10 10:23:17;;;;;;;0.82;0.40;;;21.20;64.50;;;;;;5080032;28;20099;-78
2022/06/10 10:25:44;;;;;;;1.65;0.60;;;21.40;63.80;;;;;;5082919;28;20549;-78
2022/06/10 10:28:33;;;;;;;0.55;0.55;;;21.60;63.90;;;;;;5087825;28;20482;-77
2022/06/10 10:31:19;;;;;;;0.63;0.63;;;22.00;69.60;;;;;;5074646;28;20032;-76
2022/06/10 10:33:45;;;;;;;1.10;0.65;;;21.90;65.40;;;;;;5074229;28;20064;-78
2022/06/10 10:36:23;;;;;;;2.03;0.70;;;22.10;65.90;;;;;;5080977;28;20486;-77
2022/06/10 10:38:50;;;;;;;0.75;0.68;;;22.10;60.30;;;;;;5075014;28;20036;-79
2022/06/10 10:41:22;;;;;;;1.52;0.90;;;22.10;58.60;;;;;;5082987;28;20040;-77
2022/06/10 10:43:51;;;;;;;0.50;0.50;;;22.20;59.50;;;;;;5087866;28;20508;-77
2022/06/10 10:46:28;;;;;;;1.13;0.70;;;22.60;63.10;;;;;;5086637;28;20082;-77
2022/06/10 10:48:57;;;;;;;2.30;0.55;;;22.90;57.20;;;;;;5081517;28;20638;-77
2022/06/10 10:51:29;;;;;;;2.35;0.75;;;22.90;57.20;;;;;;5086916;28;20486;-77
2022/06/10 10:54:01;;;;;;;0.63;0.63;;;23.20;59.30;;;;;;5080761;28;20089;-76
2022/06/10 10:56:33;;;;;;;2.78;1.00;;;23.40;58.00;;;;;;5081431;28;20039;-78
2022/06/10 10:58:59;;;;;;;3.47;0.93;;;23.50;56.70;;;;;;5084355;28;20425;-76
2022/06/10 11:01:43;;;;;;;2.33;0.90;;;23.40;55.60;;;;;;5085787;28;20546;-78
2022/06/10 11:04:10;;;;;;;0.47;0.47;;;23.10;56.10;;;;;;5089715;28;20034;-78
2022/06/10 11:06:37;;;;;;;0.50;0.50;;;23.50;57.20;;;;;;5095294;28;20028;-77
2022/06/10 11:09:14;;;;;;;1.58;1.20;;;23.60;55.00;;;;;;5091276;28;20028;-77
2022/06/10 11:11:41;;;;;;;1.85;0.52;;;23.70;55.40;;;;;;5091804;28;20073;-78
2022/06/10 11:14:28;;;;;;;0.40;0.40;;;24.00;55.00;;;;;;5091847;28;20020;-78
2022/06/10 11:17:12;;;;;;;0.68;0.50;;;23.70;54.80;;;;;;5070616;28;20436;-77
2022/06/10 11:19:47;;;;;;;2.63;0.80;;;23.50;55.50;;;;;;5077262;28;20487;-79
2022/06/10 11:22:19;;;;;;;1.73;0.80;;;23.80;53.80;;;;;;5082715;28;20093;-80
2022/06/10 11:24:51;;;;;;;0.73;0.73;;;24.20;54.50;;;;;;5084694;28;20028;-80
2022/06/10 11:27:33;;;;;;;1.88;0.80;;;24.40;52.60;;;;;;5086469;28;20057;-78
2022/06/10 11:30:37;;;;;;;0.73;0.60;;;24.40;52.40;;;;;;5084619;28;20038;-78
2022/06/10 11:33:20;;;;;;;2.70;1.08;;;24.70;53.20;;;;;;5088510;28;20023;-78
2022/06/10 11:36:23;;;;;;;1.95;0.63;;;24.90;50.50;;;;;;5089163;28;20024;-77
2022/06/10 11:39:04;;;;;;;1.35;0.47;;;25.10;51.30;;;;;;5044960;28;20574;-78
2022/06/10 11:41:31;;;;;;;;;;;25.40;52.20;;;;;;5081788;28;20036;-79
2022/06/10 11:44:18;;;;;;;2.83;0.85;;;25.60;50.60;;;;;;5083079;28;19960;-77
2022/06/10 11:47:02;;;;;;;0.75;0.60;;;26.00;51.10;;;;;;5090223;28;20257;-79
2022/06/10 11:49:49;;;;;;;0.40;0.40;;;26.20;49.40;;;;;;5084827;28;20041;-78
2022/06/10 11:52:29;;;;;;;1.20;0.65;;;26.50;51.00;;;;;;5071484;28;20025;-78
2022/06/10 11:55:05;;;;;;;2.42;1.13;;;26.20;47.90;;;;;;5081680;28;20399;-80
2022/06/10 12:00:43;;;;;;;0.88;0.75;;;26.90;49.70;;;;;;5079961;28;21114;-76
2022/06/10 12:03:34;;;;;;;0.57;0.45;;;27.10;49.00;;;;;;5084770;28;20039;-78
2022/06/10 12:06:08;;;;;;;0.82;0.70;;;27.90;49.00;;;;;;5088046;28;20028;-77
2022/06/10 12:08:50;;;;;;;0.93;0.85;;;27.90;42.50;;;;;;5084807;28;20032;-82
2022/06/10 12:11:33;;;;;;;0.52;0.52;;;27.30;42.50;;;;;;5087018;28;20032;-78
2022/06/10 12:14:29;;;;;;;0.50;0.50;;;27.40;42.80;;;;;;5082536;28;20028;-79
2022/06/10 12:17:19;;;;;;;0.95;0.88;;;28.10;43.50;;;;;;5076650;28;20071;-79
2022/06/10 12:19:50;;;;;;;0.68;0.60;;;28.10;43.30;;;;;;5041901;28;20035;-79
2022/06/10 12:22:16;;;;;;;1.00;0.40;;;28.40;41.40;;;;;;5070989;28;20128;-80
2022/06/10 12:24:44;;;;;;;1.58;1.08;;;28.30;41.70;;;;;;5087475;28;20024;-77
2022/06/10 12:27:15;;;;;;;2.60;0.75;;;29.10;40.90;;;;;;5081568;28;20024;-84
2022/06/10 12:29:47;;;;;;;1.10;0.80;;;28.60;40.40;;;;;;5074328;28;20115;-83
2022/06/10 12:32:23;;;;;;;0.70;0.57;;;28.90;41.60;;;;;;5081018;28;20024;-80
2022/06/10 12:34:53;;;;;;;1.33;1.10;;;29.00;39.20;;;;;;5082818;28;20070;-78
2022/06/10 12:37:27;;;;;;;1.10;0.40;;;28.60;40.50;;;;;;5076868;28;20028;-78
2022/06/10 12:40:04;;;;;;;1.88;0.90;;;28.70;40.60;;;;;;5090211;28;20036;-79
2022/06/10 12:42:51;;;;;;;2.63;0.63;;;29.60;40.80;;;;;;5083959;28;20363;-82
2022/06/10 12:45:32;;;;;;;1.70;0.65;;;30.70;37.20;;;;;;5084567;28;20031;-79
2022/06/10 12:48:01;;;;;;;2.63;0.55;;;29.70;37.10;;;;;;5084331;28;20486;-78
2022/06/10 12:50:36;;;;;;;0.57;0.55;;;29.60;38.30;;;;;;5081788;28;20097;-79
2022/06/10 12:53:28;;;;;;;0.50;0.50;;;30.50;39.30;;;;;;5084102;28;20024;-77
2022/06/10 12:55:59;;;;;;;0.80;0.50;;;31.30;35.50;;;;;;5089156;28;20074;-78
2022/06/10 12:58:37;;;;;;;0.85;0.60;;;31.20;34.90;;;;;;5080040;28;20102;-81
2022/06/10 13:01:39;;;;;;;1.02;0.90;;;33.10;33.70;;;;;;5073749;28;20016;-83
2022/06/10 13:04:10;;;;;;;0.57;0.57;;;33.00;33.00;;;;;;5083262;28;20032;-81
2022/06/10 13:06:41;;;;;;;0.50;0.50;;;34.10;32.60;;;;;;5075593;28;20031;-79
2022/06/10 13:09:10;;;;;;;0.77;0.50;;;34.80;31.40;;;;;;5076159;28;20028;-80
2022/06/10 13:11:38;;;;;;;1.23;0.55;;;35.40;33.40;;;;;;5072561;28;20024;-79
2022/06/10 13:14:21;;;;;;;0.65;0.65;;;35.60;29.70;;;;;;5080877;28;20016;-78
2022/06/10 13:17:06;;;;;;;1.15;0.75;;;37.00;29.10;;;;;;5079694;28;21850;-79
2022/06/10 13:19:41;;;;;;;1.35;0.60;;;37.70;28.90;;;;;;5081400;28;20358;-78
2022/06/10 13:22:21;;;;;;;0.40;0.40;;;38.80;27.20;;;;;;5079193;28;20032;-78
2022/06/10 13:24:53;;;;;;;;;;;38.10;27.50;;;;;;5076891;28;20035;-79
2022/06/10 13:27:28;;;;;;;1.13;1.00;;;38.30;27.40;;;;;;5079201;28;19912;-77
2022/06/10 13:29:57;;;;;;;0.60;0.60;;;38.90;26.80;;;;;;5082844;28;20032;-78
2022/06/10 13:32:23;;;;;;;1.35;1.15;;;40.20;27.00;;;;;;5075442;28;20029;-79
2022/06/10 13:35:00;;;;;;;2.45;0.82;;;40.90;27.00;;;;;;5080922;28;20980;-79
2022/06/10 13:37:31;;;;;;;1.50;1.08;;;41.80;25.30;;;;;;5080772;28;20439;-78